sensor_id;sensor_type;location;lat;lon;timestamp;temperature;humidity
573;DHT22;271;51.114;13.780;2023-08-01T00:00:27;19.00;1.00
573;DHT22;271;51.114;13.780;2023-08-01T00:03:16;18.90;1.00
573;DHT22;271;51.114;13.780;2023-08-01T00:06:04;18.80;1.00
573;DHT22;271;51.114;13.780;2023-08-01T00:08:54;18.80;1.00
573;DHT22;271;51.114;13.780;2023-08-01T00:11:51;18.50;1.00
573;DHT22;271;51.114;13.780;2023-08-01T00:14:43;18.40;1.00
573;DHT22;271;51.114;13.780;2023-08-01T00:17:32;18.30;1.00
573;DHT22;271;51.114;13.780;2023-08-01T00:20:24;18.30;1.00
573;DHT22;271;51.114;13.780;2023-08-01T00:23:13;18.30;1.00
573;DHT22;271;51.114;13.780;2023-08-01T00:26:01;18.30;1.00
573;DHT22;271;51.114;13.780;2023-08-01T00:28:52;18.10;1.00
573;DHT22;271;51.114;13.780;2023-08-01T00:31:41;18.10;1.00
573;DHT22;271;51.114;13.780;2023-08-01T00:34:30;18.20;1.00
573;DHT22;271;51.114;13.780;2023-08-01T00:37:19;18.30;1.00
573;DHT22;271;51.114;13.780;2023-08-01T00:40:09;18.30;1.00
573;DHT22;271;51.114;13.780;2023-08-01T00:42:58;18.30;1.00
573;DHT22;271;51.114;13.780;2023-08-01T00:46:03;18.20;1.00
573;DHT22;271;51.114;13.780;2023-08-01T00:48:53;18.20;1.00
573;DHT22;271;51.114;13.780;2023-08-01T00:51:44;18.20;1.00
573;DHT22;271;51.114;13.780;2023-08-01T00:54:33;18.30;1.00
573;DHT22;271;51.114;13.780;2023-08-01T00:57:23;18.30;1.00
573;DHT22;271;51.114;13.780;2023-08-01T01:00:12;18.40;1.00
573;DHT22;271;51.114;13.780;2023-08-01T01:03:02;18.40;1.00
573;DHT22;271;51.114;13.780;2023-08-01T01:05:56;18.40;1.00
573;DHT22;271;51.114;13.780;2023-08-01T01:08:46;18.50;1.00
573;DHT22;271;51.114;13.780;2023-08-01T01:11:35;18.50;1.00
573;DHT22;271;51.114;13.780;2023-08-01T01:14:29;18.40;1.00
573;DHT22;271;51.114;13.780;2023-08-01T01:17:17;18.60;1.00
573;DHT22;271;51.114;13.780;2023-08-01T01:20:07;18.60;1.00
573;DHT22;271;51.114;13.780;2023-08-01T01:23:18;18.70;1.00
573;DHT22;271;51.114;13.780;2023-08-01T01:26:09;18.60;1.00
573;DHT22;271;51.114;13.780;2023-08-01T01:28:58;18.60;1.00
573;DHT22;271;51.114;13.780;2023-08-01T01:31:47;18.80;1.00
573;DHT22;271;51.114;13.780;2023-08-01T01:34:35;18.80;1.00
573;DHT22;271;51.114;13.780;2023-08-01T01:37:23;18.80;1.00
573;DHT22;271;51.114;13.780;2023-08-01T01:40:13;18.80;1.00
573;DHT22;271;51.114;13.780;2023-08-01T01:43:01;18.80;1.00
573;DHT22;271;51.114;13.780;2023-08-01T01:45:49;18.80;1.00
573;DHT22;271;51.114;13.780;2023-08-01T01:48:37;18.90;1.00
573;DHT22;271;51.114;13.780;2023-08-01T01:51:26;18.80;1.00
573;DHT22;271;51.114;13.780;2023-08-01T01:54:15;18.90;1.00
573;DHT22;271;51.114;13.780;2023-08-01T01:57:05;18.90;1.00
573;DHT22;271;51.114;13.780;2023-08-01T01:59:53;18.80;1.00
573;DHT22;271;51.114;13.780;2023-08-01T02:02:40;18.80;1.00
573;DHT22;271;51.114;13.780;2023-08-01T02:05:30;18.80;1.00
573;DHT22;271;51.114;13.780;2023-08-01T02:08:21;18.80;1.00
573;DHT22;271;51.114;13.780;2023-08-01T02:26:29;18.00;1.00
573;DHT22;271;51.114;13.780;2023-08-01T02:37:28;17.60;1.00
573;DHT22;271;51.114;13.780;2023-08-01T02:40:30;17.40;1.00
573;DHT22;271;51.114;13.780;2023-08-01T02:43:19;17.20;1.00
573;DHT22;271;51.114;13.780;2023-08-01T02:46:07;17.10;1.00
573;DHT22;271;51.114;13.780;2023-08-01T02:48:55;17.10;1.30
573;DHT22;271;51.114;13.780;2023-08-01T02:51:42;17.00;7.40
573;DHT22;271;51.114;13.780;2023-08-01T02:54:30;16.90;10.40
573;DHT22;271;51.114;13.780;2023-08-01T02:57:18;16.90;14.00
573;DHT22;271;51.114;13.780;2023-08-01T03:00:07;16.90;13.00
573;DHT22;271;51.114;13.780;2023-08-01T03:02:57;16.90;15.20
573;DHT22;271;51.114;13.780;2023-08-01T03:05:46;16.80;13.20
573;DHT22;271;51.114;13.780;2023-08-01T03:08:34;16.80;14.90
573;DHT22;271;51.114;13.780;2023-08-01T03:11:22;16.80;18.70
573;DHT22;271;51.114;13.780;2023-08-01T03:14:10;16.80;21.60
573;DHT22;271;51.114;13.780;2023-08-01T03:16:59;16.80;23.30
573;DHT22;271;51.114;13.780;2023-08-01T03:19:47;16.80;20.00
573;DHT22;271;51.114;13.780;2023-08-01T03:22:35;16.60;22.30
573;DHT22;271;51.114;13.780;2023-08-01T03:25:23;16.50;29.40
573;DHT22;271;51.114;13.780;2023-08-01T03:28:10;16.50;34.10
573;DHT22;271;51.114;13.780;2023-08-01T03:30:58;16.50;37.00
573;DHT22;271;51.114;13.780;2023-08-01T03:33:47;16.50;36.30
573;DHT22;271;51.114;13.780;2023-08-01T03:36:35;16.50;36.20
573;DHT22;271;51.114;13.780;2023-08-01T03:39:22;16.50;30.00
573;DHT22;271;51.114;13.780;2023-08-01T03:42:10;16.50;30.90
573;DHT22;271;51.114;13.780;2023-08-01T03:44:58;16.50;26.30
573;DHT22;271;51.114;13.780;2023-08-01T03:47:45;16.50;27.70
573;DHT22;271;51.114;13.780;2023-08-01T03:50:34;16.40;26.80
573;DHT22;271;51.114;13.780;2023-08-01T03:53:22;16.40;33.60
573;DHT22;271;51.114;13.780;2023-08-01T03:56:10;16.40;33.40
573;DHT22;271;51.114;13.780;2023-08-01T03:58:58;16.50;28.30
573;DHT22;271;51.114;13.780;2023-08-01T04:01:45;16.50;25.20
573;DHT22;271;51.114;13.780;2023-08-01T04:04:33;16.50;22.30
573;DHT22;271;51.114;13.780;2023-08-01T04:07:22;16.50;21.30
573;DHT22;271;51.114;13.780;2023-08-01T04:10:10;16.50;23.20
573;DHT22;271;51.114;13.780;2023-08-01T04:41:56;16.70;6.30
573;DHT22;271;51.114;13.780;2023-08-01T04:44:58;16.80;8.80
573;DHT22;271;51.114;13.780;2023-08-01T04:52:12;16.90;6.40
573;DHT22;271;51.114;13.780;2023-08-01T05:10:08;17.00;6.20
573;DHT22;271;51.114;13.780;2023-08-01T05:16:08;17.10;8.40
573;DHT22;271;51.114;13.780;2023-08-01T05:18:56;17.10;7.50
573;DHT22;271;51.114;13.780;2023-08-01T05:21:44;17.10;14.70
573;DHT22;271;51.114;13.780;2023-08-01T05:24:32;17.00;16.30
573;DHT22;271;51.114;13.780;2023-08-01T05:27:21;17.00;17.40
573;DHT22;271;51.114;13.780;2023-08-01T05:30:10;17.00;20.00
573;DHT22;271;51.114;13.780;2023-08-01T05:32:58;17.00;24.60
573;DHT22;271;51.114;13.780;2023-08-01T05:35:47;17.10;29.30
573;DHT22;271;51.114;13.780;2023-08-01T05:38:35;17.10;25.50
573;DHT22;271;51.114;13.780;2023-08-01T05:41:23;17.10;29.80
573;DHT22;271;51.114;13.780;2023-08-01T05:44:12;17.20;37.30
573;DHT22;271;51.114;13.780;2023-08-01T05:46:59;17.20;37.10
573;DHT22;271;51.114;13.780;2023-08-01T05:49:47;17.20;39.60
573;DHT22;271;51.114;13.780;2023-08-01T05:52:35;17.20;42.20
573;DHT22;271;51.114;13.780;2023-08-01T05:55:23;17.20;47.30
573;DHT22;271;51.114;13.780;2023-08-01T05:58:10;17.30;49.70
573;DHT22;271;51.114;13.780;2023-08-01T06:00:59;17.30;47.30
573;DHT22;271;51.114;13.780;2023-08-01T06:03:47;17.30;45.50
573;DHT22;271;51.114;13.780;2023-08-01T06:06:35;17.20;45.80
573;DHT22;271;51.114;13.780;2023-08-01T06:09:23;17.10;46.30
573;DHT22;271;51.114;13.780;2023-08-01T06:12:10;17.20;51.30
573;DHT22;271;51.114;13.780;2023-08-01T06:14:58;17.30;46.80
573;DHT22;271;51.114;13.780;2023-08-01T06:17:47;17.20;44.20
573;DHT22;271;51.114;13.780;2023-08-01T06:20:35;17.30;47.00
573;DHT22;271;51.114;13.780;2023-08-01T06:23:23;17.30;45.00
573;DHT22;271;51.114;13.780;2023-08-01T06:26:10;17.10;38.10
573;DHT22;271;51.114;13.780;2023-08-01T06:28:58;17.20;45.80
573;DHT22;271;51.114;13.780;2023-08-01T06:31:46;17.30;50.70
573;DHT22;271;51.114;13.780;2023-08-01T06:34:35;17.30;49.40
573;DHT22;271;51.114;13.780;2023-08-01T06:37:23;17.30;43.90
573;DHT22;271;51.114;13.780;2023-08-01T06:40:11;17.20;47.20
573;DHT22;271;51.114;13.780;2023-08-01T06:42:59;17.30;45.50
573;DHT22;271;51.114;13.780;2023-08-01T06:45:47;17.30;46.00
573;DHT22;271;51.114;13.780;2023-08-01T06:48:35;17.40;51.20
573;DHT22;271;51.114;13.780;2023-08-01T06:51:24;17.40;48.90
573;DHT22;271;51.114;13.780;2023-08-01T06:54:12;17.40;52.10
573;DHT22;271;51.114;13.780;2023-08-01T06:56:59;17.30;44.60
573;DHT22;271;51.114;13.780;2023-08-01T06:59:47;17.30;47.40
573;DHT22;271;51.114;13.780;2023-08-01T07:02:34;17.30;50.60
573;DHT22;271;51.114;13.780;2023-08-01T07:05:23;17.30;52.90
573;DHT22;271;51.114;13.780;2023-08-01T07:08:12;17.30;56.00
573;DHT22;271;51.114;13.780;2023-08-01T07:10:59;17.30;55.70
573;DHT22;271;51.114;13.780;2023-08-01T07:13:48;17.40;58.50
573;DHT22;271;51.114;13.780;2023-08-01T07:16:36;17.40;60.40
573;DHT22;271;51.114;13.780;2023-08-01T07:19:24;17.40;58.20
573;DHT22;271;51.114;13.780;2023-08-01T07:22:11;17.40;60.90
573;DHT22;271;51.114;13.780;2023-08-01T07:25:00;17.40;57.30
573;DHT22;271;51.114;13.780;2023-08-01T07:27:48;17.50;56.60
573;DHT22;271;51.114;13.780;2023-08-01T07:30:36;17.40;58.10
573;DHT22;271;51.114;13.780;2023-08-01T07:33:23;17.50;56.30
573;DHT22;271;51.114;13.780;2023-08-01T07:36:11;17.40;47.90
573;DHT22;271;51.114;13.780;2023-08-01T07:38:59;17.50;52.40
573;DHT22;271;51.114;13.780;2023-08-01T07:41:48;17.60;52.00
573;DHT22;271;51.114;13.780;2023-08-01T07:44:35;17.60;56.70
573;DHT22;271;51.114;13.780;2023-08-01T07:47:23;17.80;57.10
573;DHT22;271;51.114;13.780;2023-08-01T07:50:11;17.70;48.10
573;DHT22;271;51.114;13.780;2023-08-01T07:52:58;17.80;47.70
573;DHT22;271;51.114;13.780;2023-08-01T07:55:46;17.80;44.90
573;DHT22;271;51.114;13.780;2023-08-01T07:58:35;17.80;49.30
573;DHT22;271;51.114;13.780;2023-08-01T08:01:23;17.80;48.70
573;DHT22;271;51.114;13.780;2023-08-01T08:04:11;17.90;50.60
573;DHT22;271;51.114;13.780;2023-08-01T08:07:00;17.90;45.80
573;DHT22;271;51.114;13.780;2023-08-01T08:09:48;18.10;47.90
573;DHT22;271;51.114;13.780;2023-08-01T08:12:35;18.10;37.50
573;DHT22;271;51.114;13.780;2023-08-01T08:15:24;18.00;21.80
573;DHT22;271;51.114;13.780;2023-08-01T08:18:12;18.10;30.20
573;DHT22;271;51.114;13.780;2023-08-01T08:21:00;18.20;30.90
573;DHT22;271;51.114;13.780;2023-08-01T08:23:47;18.20;29.50
573;DHT22;271;51.114;13.780;2023-08-01T08:26:36;18.30;27.20
573;DHT22;271;51.114;13.780;2023-08-01T08:29:26;18.40;17.00
573;DHT22;271;51.114;13.780;2023-08-01T08:32:16;18.60;21.50
573;DHT22;271;51.114;13.780;2023-08-01T08:35:06;18.80;11.00
573;DHT22;271;51.114;13.780;2023-08-01T08:37:54;18.90;1.00
573;DHT22;271;51.114;13.780;2023-08-01T08:40:52;18.90;1.00
573;DHT22;271;51.114;13.780;2023-08-01T08:43:43;19.10;7.10
573;DHT22;271;51.114;13.780;2023-08-01T08:46:41;19.30;1.00
573;DHT22;271;51.114;13.780;2023-08-01T08:49:32;19.50;1.00
573;DHT22;271;51.114;13.780;2023-08-01T08:52:20;19.70;1.00
573;DHT22;271;51.114;13.780;2023-08-01T08:55:09;19.90;1.00
573;DHT22;271;51.114;13.780;2023-08-01T08:57:59;20.00;1.00
573;DHT22;271;51.114;13.780;2023-08-01T09:00:46;20.10;1.00
573;DHT22;271;51.114;13.780;2023-08-01T09:03:34;20.00;1.00
573;DHT22;271;51.114;13.780;2023-08-01T09:06:28;20.00;1.00
573;DHT22;271;51.114;13.780;2023-08-01T09:09:17;20.30;1.00
573;DHT22;271;51.114;13.780;2023-08-01T09:12:09;20.40;1.00
573;DHT22;271;51.114;13.780;2023-08-01T09:15:00;20.60;1.00
573;DHT22;271;51.114;13.780;2023-08-01T09:17:49;20.50;1.00
573;DHT22;271;51.114;13.780;2023-08-01T09:20:43;20.50;1.00
573;DHT22;271;51.114;13.780;2023-08-01T09:23:32;20.40;1.00
573;DHT22;271;51.114;13.780;2023-08-01T09:26:22;20.20;1.00
573;DHT22;271;51.114;13.780;2023-08-01T09:29:10;20.20;1.00
573;DHT22;271;51.114;13.780;2023-08-01T09:31:58;20.10;1.00
573;DHT22;271;51.114;13.780;2023-08-01T09:34:46;19.90;1.00
573;DHT22;271;51.114;13.780;2023-08-01T09:37:40;19.90;1.00
573;DHT22;271;51.114;13.780;2023-08-01T09:40:37;19.80;1.00
573;DHT22;271;51.114;13.780;2023-08-01T09:43:25;19.60;1.00
573;DHT22;271;51.114;13.780;2023-08-01T09:46:20;19.50;1.00
573;DHT22;271;51.114;13.780;2023-08-01T09:49:08;19.40;1.00
573;DHT22;271;51.114;13.780;2023-08-01T09:51:56;19.40;1.00
573;DHT22;271;51.114;13.780;2023-08-01T09:54:44;19.50;1.00
573;DHT22;271;51.114;13.780;2023-08-01T09:57:36;19.80;1.00
573;DHT22;271;51.114;13.780;2023-08-01T10:00:26;19.90;1.00
573;DHT22;271;51.114;13.780;2023-08-01T10:03:14;20.10;1.00
573;DHT22;271;51.114;13.780;2023-08-01T10:06:03;20.10;1.00
573;DHT22;271;51.114;13.780;2023-08-01T10:08:51;20.30;1.00
573;DHT22;271;51.114;13.780;2023-08-01T10:11:40;20.30;1.00
573;DHT22;271;51.114;13.780;2023-08-01T10:14:32;20.30;1.00
573;DHT22;271;51.114;13.780;2023-08-01T10:17:22;20.30;1.00
573;DHT22;271;51.114;13.780;2023-08-01T10:20:12;20.40;1.00
573;DHT22;271;51.114;13.780;2023-08-01T10:23:01;20.40;1.00
573;DHT22;271;51.114;13.780;2023-08-01T10:25:50;20.50;1.00
573;DHT22;271;51.114;13.780;2023-08-01T10:28:40;20.60;1.00
573;DHT22;271;51.114;13.780;2023-08-01T10:31:50;20.60;1.00
573;DHT22;271;51.114;13.780;2023-08-01T10:34:38;20.70;1.00
573;DHT22;271;51.114;13.780;2023-08-01T10:37:26;20.80;1.00
573;DHT22;271;51.114;13.780;2023-08-01T10:40:14;20.90;1.00
573;DHT22;271;51.114;13.780;2023-08-01T10:43:02;21.00;1.00
573;DHT22;271;51.114;13.780;2023-08-01T10:46:00;21.10;1.00
573;DHT22;271;51.114;13.780;2023-08-01T10:48:51;21.20;1.00
573;DHT22;271;51.114;13.780;2023-08-01T10:51:44;21.20;1.00
573;DHT22;271;51.114;13.780;2023-08-01T10:54:33;21.20;1.00
573;DHT22;271;51.114;13.780;2023-08-01T10:57:31;21.10;1.00
573;DHT22;271;51.114;13.780;2023-08-01T11:00:19;21.10;1.00
573;DHT22;271;51.114;13.780;2023-08-01T11:03:18;21.10;1.00
573;DHT22;271;51.114;13.780;2023-08-01T11:06:08;21.30;1.00
573;DHT22;271;51.114;13.780;2023-08-01T11:08:56;21.70;1.00
573;DHT22;271;51.114;13.780;2023-08-01T11:11:44;22.10;1.00
573;DHT22;271;51.114;13.780;2023-08-01T11:14:31;22.30;1.00
573;DHT22;271;51.114;13.780;2023-08-01T11:17:19;22.20;1.00
573;DHT22;271;51.114;13.780;2023-08-01T11:20:11;22.30;1.00
573;DHT22;271;51.114;13.780;2023-08-01T11:23:01;22.30;1.00
573;DHT22;271;51.114;13.780;2023-08-01T11:25:50;22.30;1.00
573;DHT22;271;51.114;13.780;2023-08-01T11:28:40;22.50;1.00
573;DHT22;271;51.114;13.780;2023-08-01T11:31:35;22.60;1.00
573;DHT22;271;51.114;13.780;2023-08-01T11:34:23;22.60;1.00
573;DHT22;271;51.114;13.780;2023-08-01T11:37:18;22.70;1.00
573;DHT22;271;51.114;13.780;2023-08-01T11:40:10;22.80;1.00
573;DHT22;271;51.114;13.780;2023-08-01T11:42:58;22.80;1.00
573;DHT22;271;51.114;13.780;2023-08-01T11:45:49;22.80;1.00
573;DHT22;271;51.114;13.780;2023-08-01T11:48:37;22.90;1.00
573;DHT22;271;51.114;13.780;2023-08-01T11:51:25;22.90;1.00
573;DHT22;271;51.114;13.780;2023-08-01T11:54:14;22.90;1.00
573;DHT22;271;51.114;13.780;2023-08-01T11:57:04;22.70;1.00
573;DHT22;271;51.114;13.780;2023-08-01T11:59:53;22.70;1.00
573;DHT22;271;51.114;13.780;2023-08-01T12:02:41;22.40;1.00
573;DHT22;271;51.114;13.780;2023-08-01T12:05:29;22.30;1.00
573;DHT22;271;51.114;13.780;2023-08-01T12:08:17;22.00;1.00
573;DHT22;271;51.114;13.780;2023-08-01T12:11:05;21.90;1.00
573;DHT22;271;51.114;13.780;2023-08-01T12:14:08;21.80;1.00
573;DHT22;271;51.114;13.780;2023-08-01T12:16:56;21.60;1.00
573;DHT22;271;51.114;13.780;2023-08-01T12:19:45;21.30;1.00
573;DHT22;271;51.114;13.780;2023-08-01T12:22:35;21.00;1.00
573;DHT22;271;51.114;13.780;2023-08-01T12:25:23;20.70;1.00
573;DHT22;271;51.114;13.780;2023-08-01T12:28:11;20.10;1.00
573;DHT22;271;51.114;13.780;2023-08-01T12:31:03;19.80;1.00
573;DHT22;271;51.114;13.780;2023-08-01T12:33:51;19.60;1.00
573;DHT22;271;51.114;13.780;2023-08-01T12:36:42;19.40;1.00
573;DHT22;271;51.114;13.780;2023-08-01T12:39:43;19.20;1.00
573;DHT22;271;51.114;13.780;2023-08-01T12:42:31;19.00;1.00
573;DHT22;271;51.114;13.780;2023-08-01T12:45:18;18.80;1.00
573;DHT22;271;51.114;13.780;2023-08-01T12:48:07;18.70;1.00
573;DHT22;271;51.114;13.780;2023-08-01T12:50:56;18.60;1.00
573;DHT22;271;51.114;13.780;2023-08-01T12:53:43;18.50;1.00
573;DHT22;271;51.114;13.780;2023-08-01T12:56:31;18.50;1.00
573;DHT22;271;51.114;13.780;2023-08-01T12:59:19;18.50;3.00
573;DHT22;271;51.114;13.780;2023-08-01T13:02:07;18.50;8.40
573;DHT22;271;51.114;13.780;2023-08-01T13:04:59;18.40;8.50
573;DHT22;271;51.114;13.780;2023-08-01T13:07:47;18.40;13.40
573;DHT22;271;51.114;13.780;2023-08-01T13:10:39;18.30;14.40
573;DHT22;271;51.114;13.780;2023-08-01T13:13:26;18.30;18.20
573;DHT22;271;51.114;13.780;2023-08-01T13:16:17;18.40;26.50
573;DHT22;271;51.114;13.780;2023-08-01T13:19:06;18.60;31.60
573;DHT22;271;51.114;13.780;2023-08-01T13:22:04;18.80;15.70
573;DHT22;271;51.114;13.780;2023-08-01T13:24:51;19.00;4.70
573;DHT22;271;51.114;13.780;2023-08-01T13:27:42;19.00;1.00
573;DHT22;271;51.114;13.780;2023-08-01T13:30:30;19.00;3.50
573;DHT22;271;51.114;13.780;2023-08-01T13:33:18;19.30;8.80
573;DHT22;271;51.114;13.780;2023-08-01T13:36:05;19.40;1.30
573;DHT22;271;51.114;13.780;2023-08-01T13:38:58;19.70;12.90
573;DHT22;271;51.114;13.780;2023-08-01T13:41:46;20.10;1.00
573;DHT22;271;51.114;13.780;2023-08-01T13:44:33;20.20;1.00
573;DHT22;271;51.114;13.780;2023-08-01T13:47:21;20.40;1.00
573;DHT22;271;51.114;13.780;2023-08-01T13:50:41;20.40;1.00
573;DHT22;271;51.114;13.780;2023-08-01T14:03:45;20.50;1.00
573;DHT22;271;51.114;13.780;2023-08-01T14:06:35;20.50;1.00
573;DHT22;271;51.114;13.780;2023-08-01T14:09:22;20.50;1.00
573;DHT22;271;51.114;13.780;2023-08-01T14:12:10;20.60;1.00
573;DHT22;271;51.114;13.780;2023-08-01T14:14:59;20.60;1.00
573;DHT22;271;51.114;13.780;2023-08-01T14:17:47;20.60;1.00
573;DHT22;271;51.114;13.780;2023-08-01T14:20:39;20.60;1.00
573;DHT22;271;51.114;13.780;2023-08-01T14:23:27;20.70;1.00
573;DHT22;271;51.114;13.780;2023-08-01T14:26:15;20.80;1.00
573;DHT22;271;51.114;13.780;2023-08-01T14:29:02;20.90;1.00
573;DHT22;271;51.114;13.780;2023-08-01T14:31:51;20.90;1.00
573;DHT22;271;51.114;13.780;2023-08-01T14:34:38;20.90;1.00
573;DHT22;271;51.114;13.780;2023-08-01T14:37:30;21.00;1.00
573;DHT22;271;51.114;13.780;2023-08-01T14:40:18;21.20;1.00
573;DHT22;271;51.114;13.780;2023-08-01T14:43:06;21.30;1.00
573;DHT22;271;51.114;13.780;2023-08-01T14:45:54;21.30;1.00
573;DHT22;271;51.114;13.780;2023-08-01T14:48:45;21.30;1.00
573;DHT22;271;51.114;13.780;2023-08-01T14:51:33;21.30;1.00
573;DHT22;271;51.114;13.780;2023-08-01T14:56:50;21.20;1.00
573;DHT22;271;51.114;13.780;2023-08-01T14:59:45;21.20;1.00
573;DHT22;271;51.114;13.780;2023-08-01T15:02:34;21.20;1.00
573;DHT22;271;51.114;13.780;2023-08-01T15:05:24;21.20;1.00
573;DHT22;271;51.114;13.780;2023-08-01T15:08:26;21.00;1.00
573;DHT22;271;51.114;13.780;2023-08-01T15:11:13;21.10;1.00
573;DHT22;271;51.114;13.780;2023-08-01T15:14:03;21.10;1.00
573;DHT22;271;51.114;13.780;2023-08-01T15:16:52;21.00;1.00
573;DHT22;271;51.114;13.780;2023-08-01T15:19:39;21.00;1.00
573;DHT22;271;51.114;13.780;2023-08-01T15:22:30;21.00;1.00
573;DHT22;271;51.114;13.780;2023-08-01T15:25:18;21.10;1.00
573;DHT22;271;51.114;13.780;2023-08-01T15:28:08;21.20;1.00
573;DHT22;271;51.114;13.780;2023-08-01T15:31:04;21.10;1.00
573;DHT22;271;51.114;13.780;2023-08-01T15:33:53;21.10;1.00
573;DHT22;271;51.114;13.780;2023-08-01T15:36:40;21.00;1.00
573;DHT22;271;51.114;13.780;2023-08-01T15:39:28;21.00;1.00
573;DHT22;271;51.114;13.780;2023-08-01T15:42:16;21.00;1.00
573;DHT22;271;51.114;13.780;2023-08-01T15:45:05;20.90;1.00
573;DHT22;271;51.114;13.780;2023-08-01T15:47:54;20.90;1.00
573;DHT22;271;51.114;13.780;2023-08-01T15:50:42;20.90;1.00
573;DHT22;271;51.114;13.780;2023-08-01T15:53:32;20.80;1.00
573;DHT22;271;51.114;13.780;2023-08-01T15:56:22;20.90;1.00
573;DHT22;271;51.114;13.780;2023-08-01T15:59:10;21.00;1.00
573;DHT22;271;51.114;13.780;2023-08-01T16:01:57;21.20;1.00
573;DHT22;271;51.114;13.780;2023-08-01T16:04:46;21.30;1.00
573;DHT22;271;51.114;13.780;2023-08-01T16:07:34;21.20;1.00
573;DHT22;271;51.114;13.780;2023-08-01T16:10:22;21.30;1.00
573;DHT22;271;51.114;13.780;2023-08-01T16:13:12;21.30;1.00
573;DHT22;271;51.114;13.780;2023-08-01T16:16:02;21.30;1.00
573;DHT22;271;51.114;13.780;2023-08-01T16:18:50;21.30;1.00
573;DHT22;271;51.114;13.780;2023-08-01T16:21:39;21.20;1.00
573;DHT22;271;51.114;13.780;2023-08-01T16:24:26;21.30;1.00
573;DHT22;271;51.114;13.780;2023-08-01T16:27:14;21.30;1.00
573;DHT22;271;51.114;13.780;2023-08-01T16:30:06;21.30;1.00
573;DHT22;271;51.114;13.780;2023-08-01T16:32:54;21.40;1.00
573;DHT22;271;51.114;13.780;2023-08-01T16:35:42;21.30;1.00
573;DHT22;271;51.114;13.780;2023-08-01T16:38:31;21.40;1.00
573;DHT22;271;51.114;13.780;2023-08-01T16:41:21;21.30;1.00
573;DHT22;271;51.114;13.780;2023-08-01T16:44:09;21.10;1.00
573;DHT22;271;51.114;13.780;2023-08-01T16:46:59;21.10;1.00
573;DHT22;271;51.114;13.780;2023-08-01T16:49:48;20.90;1.00
573;DHT22;271;51.114;13.780;2023-08-01T16:52:40;20.80;1.00
573;DHT22;271;51.114;13.780;2023-08-01T16:55:29;20.80;1.00
573;DHT22;271;51.114;13.780;2023-08-01T16:58:17;20.70;1.00
573;DHT22;271;51.114;13.780;2023-08-01T17:01:05;20.70;1.00
573;DHT22;271;51.114;13.780;2023-08-01T17:03:54;20.70;1.00
573;DHT22;271;51.114;13.780;2023-08-01T17:06:42;20.70;1.00
573;DHT22;271;51.114;13.780;2023-08-01T17:09:29;20.60;1.00
573;DHT22;271;51.114;13.780;2023-08-01T17:12:18;20.70;1.00
573;DHT22;271;51.114;13.780;2023-08-01T17:15:10;20.60;1.00
573;DHT22;271;51.114;13.780;2023-08-01T17:17:57;20.60;1.00
573;DHT22;271;51.114;13.780;2023-08-01T17:20:45;20.80;1.00
573;DHT22;271;51.114;13.780;2023-08-01T17:23:33;20.80;1.00
573;DHT22;271;51.114;13.780;2023-08-01T17:26:24;20.70;1.00
573;DHT22;271;51.114;13.780;2023-08-01T17:29:13;20.70;1.00
573;DHT22;271;51.114;13.780;2023-08-01T17:32:04;20.70;1.00
573;DHT22;271;51.114;13.780;2023-08-01T17:34:52;20.70;1.00
573;DHT22;271;51.114;13.780;2023-08-01T17:37:39;20.60;1.00
573;DHT22;271;51.114;13.780;2023-08-01T17:40:27;20.60;1.00
573;DHT22;271;51.114;13.780;2023-08-01T17:43:18;20.50;1.00
573;DHT22;271;51.114;13.780;2023-08-01T17:46:07;20.50;1.00
573;DHT22;271;51.114;13.780;2023-08-01T17:48:55;20.40;1.00
573;DHT22;271;51.114;13.780;2023-08-01T17:51:43;20.40;1.00
573;DHT22;271;51.114;13.780;2023-08-01T17:54:34;20.50;1.00
573;DHT22;271;51.114;13.780;2023-08-01T17:57:21;20.40;1.00
573;DHT22;271;51.114;13.780;2023-08-01T18:00:13;20.40;1.00
573;DHT22;271;51.114;13.780;2023-08-01T18:03:02;20.40;1.00
573;DHT22;271;51.114;13.780;2023-08-01T18:06:02;20.30;1.00
573;DHT22;271;51.114;13.780;2023-08-01T18:08:50;20.30;1.00
573;DHT22;271;51.114;13.780;2023-08-01T18:11:38;20.20;1.00
573;DHT22;271;51.114;13.780;2023-08-01T18:17:55;20.20;1.00
573;DHT22;271;51.114;13.780;2023-08-01T18:20:44;20.20;1.00
573;DHT22;271;51.114;13.780;2023-08-01T18:23:35;20.10;1.00
573;DHT22;271;51.114;13.780;2023-08-01T18:26:23;20.00;1.00
573;DHT22;271;51.114;13.780;2023-08-01T18:29:29;20.00;1.00
573;DHT22;271;51.114;13.780;2023-08-01T18:32:16;20.00;1.00
573;DHT22;271;51.114;13.780;2023-08-01T18:35:07;19.90;1.00
573;DHT22;271;51.114;13.780;2023-08-01T18:37:56;19.80;1.00
573;DHT22;271;51.114;13.780;2023-08-01T18:40:44;19.90;1.00
573;DHT22;271;51.114;13.780;2023-08-01T18:43:32;19.80;1.00
573;DHT22;271;51.114;13.780;2023-08-01T18:46:23;19.70;1.00
573;DHT22;271;51.114;13.780;2023-08-01T18:49:20;19.60;1.00
573;DHT22;271;51.114;13.780;2023-08-01T18:52:08;19.50;1.00
573;DHT22;271;51.114;13.780;2023-08-01T18:54:57;19.40;1.00
573;DHT22;271;51.114;13.780;2023-08-01T18:57:45;19.40;1.00
573;DHT22;271;51.114;13.780;2023-08-01T19:00:33;19.30;1.00
573;DHT22;271;51.114;13.780;2023-08-01T19:03:21;19.30;1.00
573;DHT22;271;51.114;13.780;2023-08-01T19:06:08;19.30;1.00
573;DHT22;271;51.114;13.780;2023-08-01T19:08:56;19.20;1.00
573;DHT22;271;51.114;13.780;2023-08-01T19:11:45;19.10;1.00
573;DHT22;271;51.114;13.780;2023-08-01T19:14:33;19.00;1.00
573;DHT22;271;51.114;13.780;2023-08-01T19:17:21;19.00;1.00
573;DHT22;271;51.114;13.780;2023-08-01T19:20:09;18.90;1.00
573;DHT22;271;51.114;13.780;2023-08-01T19:22:57;18.80;1.00
573;DHT22;271;51.114;13.780;2023-08-01T19:25:45;18.70;1.00
573;DHT22;271;51.114;13.780;2023-08-01T19:28:34;18.60;1.00
573;DHT22;271;51.114;13.780;2023-08-01T19:31:22;18.60;1.00
573;DHT22;271;51.114;13.780;2023-08-01T19:34:09;18.60;1.00
573;DHT22;271;51.114;13.780;2023-08-01T19:36:57;18.50;1.00
573;DHT22;271;51.114;13.780;2023-08-01T19:39:45;18.50;1.00
573;DHT22;271;51.114;13.780;2023-08-01T19:42:33;18.40;1.00
573;DHT22;271;51.114;13.780;2023-08-01T19:45:22;18.40;1.00
573;DHT22;271;51.114;13.780;2023-08-01T19:48:10;18.30;1.00
573;DHT22;271;51.114;13.780;2023-08-01T19:50:58;18.30;1.00
573;DHT22;271;51.114;13.780;2023-08-01T19:53:47;18.20;1.00
573;DHT22;271;51.114;13.780;2023-08-01T19:56:34;18.20;1.00
573;DHT22;271;51.114;13.780;2023-08-01T19:59:22;18.20;1.00
573;DHT22;271;51.114;13.780;2023-08-01T20:02:11;18.20;1.00
573;DHT22;271;51.114;13.780;2023-08-01T20:04:59;18.10;1.00
573;DHT22;271;51.114;13.780;2023-08-01T20:07:46;18.10;1.00
573;DHT22;271;51.114;13.780;2023-08-01T20:10:36;18.10;1.00
573;DHT22;271;51.114;13.780;2023-08-01T20:13:24;18.10;1.00
573;DHT22;271;51.114;13.780;2023-08-01T20:16:12;18.00;1.00
573;DHT22;271;51.114;13.780;2023-08-01T20:19:01;18.00;1.00
573;DHT22;271;51.114;13.780;2023-08-01T20:21:49;18.00;1.00
573;DHT22;271;51.114;13.780;2023-08-01T20:24:37;18.00;1.00
573;DHT22;271;51.114;13.780;2023-08-01T20:27:24;17.90;1.00